Sovereign — 9HUE9 — position and weather

sailwx.info

Track history (hours):
 
Tides and Currents Weather Stations Pressure Air Temp Water Temp Dewpoint Dewpoint Depression Visibility Wind Speed Wind Dir Waves Ship Positions

Sovereign

Last reported at 2017-Dec-01 19:22 UTC. Time now 2017-Dec-14 15:03 UTC.
Position N 28°16' W 016°13'.
Warning: this ship's position is 12 days out of date.

Length 269 m; draft 7.8 m.

Type: Passenger vessel. MMSI: 249539000.

Date/timePositionNaut miles runAvg speedWind from/ knotsBaromVisibWave heightAir tempDewpointWater temp
2017-Dec-01 19:22N 28°16' W 016°13'614.7
2017-Dec-01 18:57N 28°21' W 016°11'714.9
2017-Dec-01 18:30N 28°28' W 016°13'1 2.4
2017-Dec-01 17:55N 28°28' W 016°14'0 0.0
2017-Dec-01 17:25N 28°28' W 016°14'0 0.0
2017-Dec-01 16:55N 28°28' W 016°14'0 0.0
2017-Dec-01 15:14N 28°28' W 016°14'0 0.0
2017-Dec-01 14:58N 28°28' W 016°14'0 0.0
2017-Dec-01 14:25N 28°28' W 016°14'0 0.0
2017-Dec-01 13:58N 28°28' W 016°14'0 0.0
2017-Dec-01 13:25N 28°28' W 016°14'0 0.0
2017-Dec-01 12:46N 28°28' W 016°14'0 0.0
2017-Dec-01 12:01N 28°28' W 016°14'0 0.0
2017-Dec-01 11:59N 28°28' W 016°14'0 0.0
2017-Dec-01 11:28N 28°28' W 016°14'0 0.0
2017-Dec-01 10:43N 28°28' W 016°14'0 0.0
2017-Dec-01 10:28N 28°28' W 016°14'0 0.0
2017-Dec-01 09:01N 28°28' W 016°14'0 0.0
2017-Dec-01 08:49N 28°28' W 016°14'0 1.3
2017-Dec-01 08:29N 28°29' W 016°14'9 6.6
2017-Dec-01 07:10N 28°27' W 016°05'2 9.2
2017-Dec-01 07:00N 28°27' W 016°03'611.2
2017-Dec-01 06:31N 28°26' W 015°57'611.7
2017-Dec-01 06:00N 28°30' W 015°52'611.9
2017-Dec-01 05:30N 28°35' W 015°47'611.1
2017-Dec-01 05:00N 28°38' W 015°42'611.8
2017-Dec-01 04:30N 28°38' W 015°35'612.3
2017-Dec-01 04:00N 28°39' W 015°28'612.4
2017-Dec-01 03:30N 28°40' W 015°21'612.2
2017-Dec-01 03:00N 28°41' W 015°15'612.4
2017-Dec-01 02:30N 28°42' W 015°08'612.1
2017-Dec-01 02:00N 28°43' W 015°01'612.1
2017-Dec-01 01:30N 28°44' W 014°54'612.1
2017-Dec-01 00:59N 28°45' W 014°47'612.3
2017-Dec-01 00:30N 28°45' W 014°40'612.8
2017-Dec-01 00:00N 28°46' W 014°33'1012.3
2017-Nov-30 23:13N 28°48' W 014°22'612.3
2017-Nov-30 22:42N 28°48' W 014°15'212.3
2017-Nov-30 22:31N 28°48' W 014°12'612.3
2017-Nov-30 22:01N 28°48' W 014°05'912.7
2017-Nov-30 21:19N 28°48' W 013°55'57112.5
2017-Nov-28 23:45N 37°42' W 009°52'416.2
2017-Nov-28 23:30N 37°46' W 009°50'1015.9
2017-Nov-28 22:55N 37°55' W 009°45'616.2
2017-Nov-28 22:30N 38°01' W 009°43'816.4
2017-Nov-28 22:00N 38°09' W 009°40'816.6
2017-Nov-28 21:30N 38°17' W 009°36'816.6
2017-Nov-28 21:00N 38°24' W 009°33'816.8
2017-Nov-28 20:30N 38°32' W 009°28'816.7
2017-Nov-28 20:00N 38°38' W 009°21'913.0
2017-Nov-28 19:20N 38°41' W 009°11'3 8.2
2017-Nov-28 19:00N 38°43' W 009°07'0 0.0
2017-Nov-28 18:29N 38°43' W 009°07'0 0.0
2017-Nov-28 17:59N 38°43' W 009°07'0 0.0
2017-Nov-28 17:29N 38°43' W 009°07'0 0.0
2017-Nov-28 16:59N 38°43' W 009°07'0 0.0
2017-Nov-28 16:26N 38°43' W 009°07'0 0.0
2017-Nov-28 15:59N 38°43' W 009°07'0 0.0
2017-Nov-28 14:59N 38°43' W 009°07'0 0.0
2017-Nov-28 14:29N 38°43' W 009°07'0 0.0
2017-Nov-28 13:59N 38°43' W 009°07'0 0.0
2017-Nov-28 13:29N 38°43' W 009°07'0 0.0
2017-Nov-28 12:59N 38°43' W 009°07'0 0.0
2017-Nov-28 12:29N 38°43' W 009°07'0 0.0
2017-Nov-28 11:59N 38°43' W 009°07'0 0.0
2017-Nov-28 11:29N 38°43' W 009°07'0 0.0
2017-Nov-28 10:59N 38°43' W 009°07'0 0.0
2017-Nov-28 10:29N 38°43' W 009°07'0 0.0
2017-Nov-28 09:59N 38°43' W 009°07'0 0.0
2017-Nov-28 09:29N 38°43' W 009°07'0 0.0
2017-Nov-28 08:59N 38°43' W 009°07'0 1.0
2017-Nov-28 08:31N 38°43' W 009°07'5 9.2
2017-Nov-28 07:57N 38°41' W 009°13'511.5
2017-Nov-28 07:31N 38°40' W 009°19'714.8
2017-Nov-28 07:00N 38°33' W 009°25'816.1
2017-Nov-28 06:31N 38°25' W 009°26'816.7
2017-Nov-28 06:01N 38°17' W 009°26'816.3
2017-Nov-28 05:30N 38°09' W 009°25'1615.9
2017-Nov-28 04:31N 37°53' W 009°24'815.5
2017-Nov-28 04:01N 37°45' W 009°24'815.9
2017-Nov-28 03:31N 37°37' W 009°24'816.0
2017-Nov-28 03:00N 37°29' W 009°23'815.9
2017-Nov-28 02:30N 37°21' W 009°23'3815.1
2017-Nov-27 23:58N 36°45' W 009°08'611.2
2017-Nov-27 23:26N 36°43' W 009°00'4 9.9
2017-Nov-27 22:59N 36°42' W 008°55'510.3
2017-Nov-27 22:30N 36°42' W 008°49'713.4
2017-Nov-27 22:00N 36°41' W 008°41'713.6
2017-Nov-27 21:30N 36°40' W 008°32'713.2
2017-Nov-27 21:00N 36°40' W 008°24'713.0
2017-Nov-27 20:30N 36°39' W 008°16'714.9
2017-Nov-27 20:00N 36°39' W 008°07'816.4
2017-Nov-27 19:30N 36°38' W 007°57'  
Track history (hours):
 
Tides and Currents Weather Stations Pressure Air Temp Water Temp Dewpoint Dewpoint Depression Visibility Wind Speed Wind Dir Waves Ship Positions

Sovereign

Last reported at 2017-Dec-01 19:22 UTC. Time now 2017-Dec-14 15:03 UTC.
Position N 28°16' W 016°13'.
Warning: this ship's position is 12 days out of date.

Length 269 m; draft 7.8 m.

Type: Passenger vessel. MMSI: 249539000.

Date/timePositionNaut miles runAvg speedWind from/ knotsBaromVisibWave heightAir tempDewpointWater temp
2017-Dec-01 19:22N 28°16' W 016°13'614.7
2017-Dec-01 18:57N 28°21' W 016°11'714.9
2017-Dec-01 18:30N 28°28' W 016°13'1 2.4
2017-Dec-01 17:55N 28°28' W 016°14'0 0.0
2017-Dec-01 17:25N 28°28' W 016°14'0 0.0
2017-Dec-01 16:55N 28°28' W 016°14'0 0.0
2017-Dec-01 15:14N 28°28' W 016°14'0 0.0
2017-Dec-01 14:58N 28°28' W 016°14'0 0.0
2017-Dec-01 14:25N 28°28' W 016°14'0 0.0
2017-Dec-01 13:58N 28°28' W 016°14'0 0.0
2017-Dec-01 13:25N 28°28' W 016°14'0 0.0
2017-Dec-01 12:46N 28°28' W 016°14'0 0.0
2017-Dec-01 12:01N 28°28' W 016°14'0 0.0
2017-Dec-01 11:59N 28°28' W 016°14'0 0.0
2017-Dec-01 11:28N 28°28' W 016°14'0 0.0
2017-Dec-01 10:43N 28°28' W 016°14'0 0.0
2017-Dec-01 10:28N 28°28' W 016°14'0 0.0
2017-Dec-01 09:01N 28°28' W 016°14'0 0.0
2017-Dec-01 08:49N 28°28' W 016°14'0 1.3
2017-Dec-01 08:29N 28°29' W 016°14'9 6.6
2017-Dec-01 07:10N 28°27' W 016°05'2 9.2
2017-Dec-01 07:00N 28°27' W 016°03'611.2
2017-Dec-01 06:31N 28°26' W 015°57'611.7
2017-Dec-01 06:00N 28°30' W 015°52'611.9
2017-Dec-01 05:30N 28°35' W 015°47'611.1
2017-Dec-01 05:00N 28°38' W 015°42'611.8
2017-Dec-01 04:30N 28°38' W 015°35'612.3
2017-Dec-01 04:00N 28°39' W 015°28'612.4
2017-Dec-01 03:30N 28°40' W 015°21'612.2
2017-Dec-01 03:00N 28°41' W 015°15'612.4
2017-Dec-01 02:30N 28°42' W 015°08'612.1
2017-Dec-01 02:00N 28°43' W 015°01'612.1
2017-Dec-01 01:30N 28°44' W 014°54'612.1
2017-Dec-01 00:59N 28°45' W 014°47'612.3
2017-Dec-01 00:30N 28°45' W 014°40'612.8
2017-Dec-01 00:00N 28°46' W 014°33'1012.3
2017-Nov-30 23:13N 28°48' W 014°22'612.3
2017-Nov-30 22:42N 28°48' W 014°15'212.3
2017-Nov-30 22:31N 28°48' W 014°12'612.3
2017-Nov-30 22:01N 28°48' W 014°05'912.7
2017-Nov-30 21:19N 28°48' W 013°55'57112.5
2017-Nov-28 23:45N 37°42' W 009°52'416.2
2017-Nov-28 23:30N 37°46' W 009°50'1015.9
2017-Nov-28 22:55N 37°55' W 009°45'616.2
2017-Nov-28 22:30N 38°01' W 009°43'816.4
2017-Nov-28 22:00N 38°09' W 009°40'816.6
2017-Nov-28 21:30N 38°17' W 009°36'816.6
2017-Nov-28 21:00N 38°24' W 009°33'816.8
2017-Nov-28 20:30N 38°32' W 009°28'816.7
2017-Nov-28 20:00N 38°38' W 009°21'913.0
2017-Nov-28 19:20N 38°41' W 009°11'3 8.2
2017-Nov-28 19:00N 38°43' W 009°07'0 0.0
2017-Nov-28 18:29N 38°43' W 009°07'0 0.0
2017-Nov-28 17:59N 38°43' W 009°07'0 0.0
2017-Nov-28 17:29N 38°43' W 009°07'0 0.0
2017-Nov-28 16:59N 38°43' W 009°07'0 0.0
2017-Nov-28 16:26N 38°43' W 009°07'0 0.0
2017-Nov-28 15:59N 38°43' W 009°07'0 0.0
2017-Nov-28 14:59N 38°43' W 009°07'0 0.0
2017-Nov-28 14:29N 38°43' W 009°07'0 0.0
2017-Nov-28 13:59N 38°43' W 009°07'0 0.0
2017-Nov-28 13:29N 38°43' W 009°07'0 0.0
2017-Nov-28 12:59N 38°43' W 009°07'0 0.0
2017-Nov-28 12:29N 38°43' W 009°07'0 0.0
2017-Nov-28 11:59N 38°43' W 009°07'0 0.0
2017-Nov-28 11:29N 38°43' W 009°07'0 0.0
2017-Nov-28 10:59N 38°43' W 009°07'0 0.0
2017-Nov-28 10:29N 38°43' W 009°07'0 0.0
2017-Nov-28 09:59N 38°43' W 009°07'0 0.0
2017-Nov-28 09:29N 38°43' W 009°07'0 0.0
2017-Nov-28 08:59N 38°43' W 009°07'0 1.0
2017-Nov-28 08:31N 38°43' W 009°07'5 9.2
2017-Nov-28 07:57N 38°41' W 009°13'511.5
2017-Nov-28 07:31N 38°40' W 009°19'714.8
2017-Nov-28 07:00N 38°33' W 009°25'816.1
2017-Nov-28 06:31N 38°25' W 009°26'816.7
2017-Nov-28 06:01N 38°17' W 009°26'816.3
2017-Nov-28 05:30N 38°09' W 009°25'1615.9
2017-Nov-28 04:31N 37°53' W 009°24'815.5
2017-Nov-28 04:01N 37°45' W 009°24'815.9
2017-Nov-28 03:31N 37°37' W 009°24'816.0
2017-Nov-28 03:00N 37°29' W 009°23'815.9
2017-Nov-28 02:30N 37°21' W 009°23'3815.1
2017-Nov-27 23:58N 36°45' W 009°08'611.2
2017-Nov-27 23:26N 36°43' W 009°00'4 9.9
2017-Nov-27 22:59N 36°42' W 008°55'510.3
2017-Nov-27 22:30N 36°42' W 008°49'713.4
2017-Nov-27 22:00N 36°41' W 008°41'713.6
2017-Nov-27 21:30N 36°40' W 008°32'713.2
2017-Nov-27 21:00N 36°40' W 008°24'713.0
2017-Nov-27 20:30N 36°39' W 008°16'714.9
2017-Nov-27 20:00N 36°39' W 008°07'816.4
2017-Nov-27 19:30N 36°38' W 007°57'  

Dump ship's entire track history